LFRJLFSG

Guest
Details From LFRJ - Landivisiau
To LFSG - Epinal Mirecourt
Flight Number -
Tags Routegen Generated
Created
Modified
Stats Distance 406 nm / 752 km
Max Altitude 5,000 ft / 1,524 m
Waypoints 8
Social Downloads 0
Likes 0
Share VATSIM

Download

Looking for another format? Having issues loading an existing format? Contact us
Advertisement - Login to hide

Notes

Departing runway 7 LFRJ. Arriving runway 8 LFSG.

Route

LFRJ +48.55_-004.03 +48.55_-003.94 +48.57_-001.45 +48.54_+001.03 +48.33_+005.86 +48.32_+005.94 LFSG

ID Type Via Altitude Latitude Longitude Leg Dist Tot Dist Heading (true) Name
O LFRJ APT - 0 ft / 0 m 48.53390˚ -4.13316˚ - 0 nm - -
+48.55_-004.03 LATLON - 5,000 ft / 1,524 m 48.55476˚ -4.02849˚ 4 nm 4 nm 73° / 73° -
+48.55_-003.94 LATLON - 5,000 ft / 1,524 m 48.55148˚ -3.94117˚ 3 nm 7 nm 93° / 93° -
+48.57_-001.45 LATLON - 5,000 ft / 1,524 m 48.57354˚ -1.45462˚ 98 nm 106 nm 88° / 90° -
+48.54_+001.03 LATLON - 5,000 ft / 1,524 m 48.54348˚ 1.03150˚ 98 nm 205 nm 90° / 92° -
+48.33_+005.86 LATLON - 2,480 ft / 756 m 48.33291˚ 5.85931˚ 192 nm 398 nm 92° / 96° -
+48.32_+005.94 LATLON - 880 ft / 268 m 48.31788˚ 5.94340˚ 3 nm 401 nm 105° / 105° -
O LFSG APT - 0 ft / 0 m 48.32415˚ 6.05182˚ 4 nm 406 nm 85° / 85° -

Altitude Profile

Advertisement - Login to hide

Weather


0- 5 10 15 20 25 30 35+ Temperature / ° C

Clouds and Precipitation
Forecast for 2017-12-13 00:00 UTC. Updated 36 minutes ago

Ground ~20,000 ft ~40,000 ft Winds

LFRJ

Details ICAO LFRJ
Name Landivisiau Navy
Region France
Timezone Europe/Paris (UTC+1.0)
Stats Elevation 347 ft / 106 m (AMSL)
Location 48.530229° -4.151792°
Runways 1
Magnetic Variation 1.494° W

METAR

LFRJ 121930Z AUTO 20009KT CAVOK 07/05 Q1011 BECMG 20020G30KT 4000 RA BKN006 OVC012

Decode

TAF

Not found

Departure Runways

ID Width Length Bearing (true) Bearing (mag) Surface Threshold Offset Overrun Length
08 148 ft / 45 m 8,868 ft / 2,703 m 73.24° 74.73° Asphalt 0 ft / 0 m 279 ft / 85 m
26 148 ft / 45 m 8,868 ft / 2,703 m 253.27° 254.76° Asphalt 0 ft / 0 m 279 ft / 85 m

LFSG

Details ICAO LFSG (EPL)
Name Epinal Mirecourt
Region France
Timezone Europe/Paris (UTC+1.0)
Stats Elevation 1,084 ft / 330 m (AMSL)
Location 48.325189° 6.069958°
Runways 1
Magnetic Variation 1.685° E

METAR

LFSG 121930Z AUTO 16004KT 9999 BKN037 OVC045 01/M00 Q1016

Decode

TAF

Not found

Destination Runways

ID Width Length Bearing (true) Bearing (mag) Surface Threshold Offset Overrun Length
09 147 ft / 45 m 8,835 ft / 2,693 m 85.05° 83.37° Concrete 0 ft / 0 m 1,662 ft / 507 m
27 147 ft / 45 m 8,835 ft / 2,693 m 265.08° 263.40° Concrete 846 ft / 258 m 0 ft / 0 m

Approach Navaids

Runway Type Ident Frequency Range Bearing (true) Bearing (mag) Slope Elevation
27 Localiser MI 110.90 MHz 18 nm / 33 km 265.05° 263.36° - 1,084 ft / 330 m (AMSL)
27 Glidescope MI 110.90 MHz 10 nm / 19 km 265.06° 263.38° 3.00° 1,084 ft / 330 m (AMSL)